Ridgeway, VA (24148)

3:50 PM EST on February 13, 2016 (GMT -0500)
Fontaine | | Change Station
CLOSE
Current Station
Personal Weather Station
Location: Martinsville, VA
Elevation: 845 ft
Nearby Weather Stations
Active Advisory: Winter Storm Watch Active Notice: Public Information Statement

Elev 845 ft 36.63 °N, 79.86 °W | Updated 1 minute ago

Clear
Clear
27.8 °F
Feels Like 21 °F
N
6.0
Wind Variable Wind from North
Gusts 7.0 mph

Today
High -- | Low -- °F
--% Chance of Precip.
Yesterday
High -- | Low -- °F
Precip. -- in
Pressure 30.32 in
Visibility 10.0 miles
Clouds Clear
Windchill 21 °F
Dew Point -3 °F
Humidity 26%
Rainfall 0.00 in
Snow Depth Not available.
7:10 AM 5:57 PM
Waxing Crescent, 34% visible
METAR KMTV 132035Z AUTO 34014G21KT 310V010 10SM CLR M03/M20 A3032 RMK AO2 T10331201
Pressure 30.32 in
Visibility 10.0 miles
Clouds Clear
Windchill 21 °F
Dew Point -3 °F
Humidity 26%
Rainfall 0.00 in
Snow Depth Not available.
7:10 AM 5:57 PM
Waxing Crescent, 34% visible
METAR KMTV 132035Z AUTO 34014G21KT 310V010 10SM CLR M03/M20 A3032 RMK AO2 T10331201

10-Day Weather Forecast

Almanac

Astronomy

Feb. 13, 2016 Rise Set
Actual Time
Civil Twilight
Nautical Twilight
Astronomical Twilight
Moon
Length of Visible Light
Length of Day
Tomorrow will be .
, % of the Moon is Illuminated

Today's Extremes

State Highs State Lows

Community

WunderPhotos

Upload Photos

1,892,666 photos uploaded!

WunderBlog® & News

Nearby

Air Quality

  Air Quality AQ Index Pollutant
Not available.

Snow Depth

Station Depth Elevation

Earthquake Activity

City Distance Mag. Time & Date
Minimum magnitude displayed is 2.5.

Coastal Water Temperatures

Place Temperature

Stations

Nearby Weather Stations

Station Location Temp. Windchill Dew Point Humidity Wind Precip. Elev Updated Type
                   

Watches & Warnings

Winter Storm Watch
Issued: 2:30 PM EST Feb. 13, 2016 – National Weather Service

... Winter Storm Watch in effect from Sunday evening through
Tuesday morning...

The National Weather Service in Blacksburg has issued a Winter
Storm Watch... which is in effect from Sunday evening through
Tuesday morning.

* Locations... foothills and Piedmont of northwest North Carolina
into Southside Virginia.

* Hazard types... snow... sleet and freezing rain.

* Accumulations... 2 to 5 inches of snow and sleet. Around a tenth
of an inch of ice.

* Timing... snow developing Sunday night before changing to a
wintry mix of sleet and some freezing rain Monday afternoon into
early Tuesday.

* Impacts... travel will become hazardous Sunday night into early
Tuesday.

* Temperatures... in the 20s to around 30.


Precautionary/preparedness actions...

A Winter Storm Watch means there is a potential for significant
snow... sleet... or ice accumulations that may impact travel.
Continue to monitor the latest forecasts.